createdAt,value
2022-10-17T04:25:55.246Z,24.30
2022-10-17T04:26:56.425Z,23.40
2022-10-17T04:27:56.271Z,26.80
2022-10-17T04:28:56.168Z,23.70
2022-10-17T04:29:56.263Z,18.70
2022-10-17T04:30:56.298Z,22.80
2022-10-17T04:31:56.407Z,33.90
2022-10-17T04:32:56.387Z,20.30
2022-10-17T04:33:56.120Z,26.30
2022-10-17T04:34:56.124Z,30.90
2022-10-17T04:35:56.307Z,25.40
2022-10-17T04:36:56.095Z,18.60
2022-10-17T04:37:56.162Z,35.00
2022-10-17T04:38:56.055Z,26.60
2022-10-17T04:39:56.757Z,21.00
2022-10-17T04:40:56.213Z,23.80
2022-10-17T04:41:56.039Z,28.50
2022-10-17T04:42:56.025Z,29.50
2022-10-17T04:43:56.008Z,23.50
2022-10-17T04:44:56.181Z,25.00
2022-10-17T04:46:58.418Z,22.90
2022-10-17T04:47:08.387Z,24.00
2022-10-17T04:48:08.597Z,24.70
2022-10-17T04:49:08.959Z,20.50
2022-10-17T04:50:08.239Z,31.00
2022-10-17T04:51:08.274Z,21.00
2022-10-17T04:52:08.227Z,23.00
2022-10-17T04:53:08.237Z,19.80
2022-10-17T04:54:08.703Z,28.80
2022-10-17T04:55:08.445Z,17.00
2022-10-17T04:56:08.220Z,22.20
2022-10-17T04:57:08.201Z,26.30
2022-10-17T04:58:08.243Z,27.00
2022-10-17T04:59:08.184Z,49.20
2022-10-17T05:01:08.226Z,29.10
2022-10-17T05:02:08.561Z,23.40
2022-10-17T05:03:08.201Z,24.40
2022-10-17T05:04:09.001Z,23.10
2022-10-17T05:05:08.429Z,30.60
2022-10-17T05:06:08.092Z,22.40
2022-10-17T05:07:08.549Z,24.60
2022-10-17T05:08:08.089Z,17.70
2022-10-17T05:09:08.253Z,29.60
2022-10-17T05:10:08.052Z,39.20
2022-10-17T05:11:08.017Z,32.90
2022-10-17T05:12:10.273Z,21.30
2022-10-17T05:13:08.009Z,22.00
2022-10-17T05:14:08.256Z,20.00
2022-10-17T05:15:09.049Z,23.80
2022-10-17T05:16:08.240Z,21.80
2022-10-17T05:17:07.976Z,23.80
2022-10-17T05:18:08.045Z,29.40
2022-10-17T05:19:08.257Z,30.40
2022-10-17T05:20:07.986Z,23.90
2022-10-17T05:21:06.908Z,22.30
2022-10-17T05:22:08.194Z,29.20
2022-10-17T05:23:07.893Z,20.80
2022-10-17T05:24:07.892Z,30.40
2022-10-17T05:25:07.875Z,27.20
2022-10-17T05:26:07.895Z,24.50
2022-10-17T05:27:07.857Z,24.80
2022-10-17T05:28:07.857Z,20.00
2022-10-17T05:29:08.178Z,26.80
2022-10-17T05:30:08.047Z,25.80
2022-10-17T05:31:07.799Z,28.30
2022-10-17T05:32:07.785Z,23.40
2022-10-17T05:33:07.809Z,25.70
2022-10-17T05:34:10.239Z,20.10
2022-10-17T05:35:07.781Z,30.20
2022-10-17T05:36:07.742Z,24.10
2022-10-17T05:37:07.744Z,19.40
2022-10-17T05:38:07.741Z,28.30
2022-10-17T05:39:07.736Z,31.10
2022-10-17T05:40:07.815Z,30.50
2022-10-17T05:41:07.960Z,25.20
2022-10-17T05:42:07.873Z,30.70
2022-10-17T05:43:07.692Z,26.10
2022-10-17T05:44:07.960Z,27.00
2022-10-17T05:45:08.007Z,23.40
2022-10-17T05:46:07.944Z,28.40
2022-10-17T05:47:07.609Z,20.80
2022-10-17T05:48:07.610Z,24.30
2022-10-17T05:49:15.056Z,30.50
2022-10-17T05:50:07.591Z,23.60
2022-10-17T05:51:07.762Z,21.40
2022-10-17T05:52:07.608Z,27.30
2022-10-17T05:53:07.554Z,22.70
2022-10-17T05:54:07.577Z,26.60
2022-10-17T05:55:07.725Z,20.50
2022-10-17T05:56:07.522Z,21.50
2022-10-17T05:57:07.512Z,22.00
2022-10-17T05:58:11.734Z,25.00
2022-10-17T05:59:07.538Z,29.70
2022-10-17T06:00:07.476Z,24.50
2022-10-17T06:01:10.646Z,32.30
2022-10-17T06:02:07.495Z,24.50
2022-10-17T06:03:07.460Z,19.20
2022-10-17T06:04:07.470Z,28.40
2022-10-17T06:05:07.411Z,23.80
2022-10-17T06:06:07.412Z,30.00
2022-10-17T06:07:07.417Z,21.60
2022-10-17T06:08:07.529Z,33.30
2022-10-17T06:09:07.537Z,18.80
2022-10-17T06:10:08.249Z,23.00
2022-10-17T06:11:10.031Z,27.60
2022-10-17T06:12:08.792Z,23.20
2022-10-17T06:13:07.436Z,26.70
2022-10-17T06:14:07.372Z,20.70
2022-10-17T06:15:07.569Z,19.40
2022-10-17T06:16:07.728Z,21.20
2022-10-17T06:17:10.937Z,25.40
2022-10-17T06:18:07.378Z,19.90
2022-10-17T10:51:30.974Z,8.30
2022-10-17T11:03:27.995Z,9.20
2022-10-17T11:08:32.325Z,8.90
2022-10-17T11:09:33.940Z,9.80
2022-10-17T11:10:33.244Z,9.90
2022-10-17T11:11:33.230Z,11.50
2022-10-17T11:12:33.215Z,11.20
2022-10-17T11:13:33.180Z,10.00
2022-10-17T11:14:33.416Z,13.10
2022-10-17T11:15:33.197Z,11.20
2022-10-17T11:16:33.137Z,12.00
2022-10-17T11:17:33.318Z,9.90
2022-10-17T11:18:33.124Z,12.20
2022-10-17T11:19:33.740Z,10.40
2022-10-17T11:20:33.191Z,9.60
2022-10-17T11:21:33.159Z,13.30
2022-10-17T11:22:33.519Z,11.50
2022-10-17T11:23:33.189Z,9.00
2022-10-17T11:24:33.114Z,11.50
2022-10-17T11:25:33.192Z,11.10
2022-10-17T11:39:02.366Z,8.60
2022-10-17T11:40:03.423Z,9.30
2022-10-17T11:41:03.349Z,10.50
2022-10-17T11:42:03.579Z,13.60
2022-10-17T11:43:03.586Z,11.20
2022-10-17T11:55:04.322Z,13.00
2022-10-17T11:56:05.070Z,12.70
2022-10-17T11:57:04.997Z,11.30
2022-10-17T11:58:04.984Z,10.50
2022-10-17T11:59:05.051Z,9.30
2022-10-17T12:00:06.403Z,9.70
2022-10-17T12:01:05.024Z,9.70
2022-10-17T12:02:04.940Z,14.50
2022-10-17T12:03:05.632Z,9.50
2022-10-17T12:04:05.617Z,11.80
2022-10-17T12:05:05.065Z,11.00
2022-10-17T12:06:09.197Z,13.90
2022-10-17T12:07:04.950Z,12.50
2022-10-17T12:08:04.895Z,11.80
2022-10-17T12:09:05.803Z,12.90
2022-10-17T12:11:12.055Z,12.40
2022-10-17T12:11:17.057Z,13.50
2022-10-17T12:12:17.724Z,15.40
2022-10-17T12:13:17.012Z,12.90
2022-10-17T12:15:23.999Z,11.90
2022-10-17T12:15:29.025Z,13.00
2022-10-17T13:56:22.886Z,13.90
2022-10-17T13:57:01.101Z,13.20
2022-10-17T15:30:11.520Z,11.50
2022-10-17T15:31:11.512Z,12.50
2022-10-17T15:32:11.249Z,13.80
2022-10-17T15:33:11.312Z,11.80
2022-10-17T15:34:11.259Z,11.20
2022-10-17T15:35:11.257Z,11.90
2022-10-17T15:36:14.009Z,12.20
2022-10-17T15:37:11.425Z,11.30
2022-10-17T15:38:11.269Z,12.80
2022-10-17T15:40:51.263Z,13.50
2022-10-17T15:41:52.229Z,14.40
2022-10-17T15:42:56.879Z,11.80
2022-10-17T15:47:46.677Z,12.20
2022-10-17T15:48:46.430Z,12.20
2022-10-17T15:49:46.409Z,11.60
2022-10-17T15:50:46.369Z,10.90
2022-10-17T15:51:47.749Z,10.10
2022-10-17T15:52:46.307Z,11.90
2022-10-17T15:53:46.310Z,10.20
2022-10-17T15:54:46.331Z,11.50
2022-10-17T15:55:46.309Z,14.40
2022-10-17T15:56:46.274Z,10.10
2022-10-17T15:57:46.257Z,12.10
2022-10-17T15:58:46.206Z,13.30
2022-10-17T15:59:46.245Z,14.00
2022-10-17T16:00:46.346Z,14.30
2022-10-17T16:01:46.195Z,14.90
2022-10-17T16:02:46.220Z,12.00
2022-10-17T16:03:46.438Z,12.60
2022-10-17T16:07:30.686Z,14.60
2022-10-17T16:08:19.129Z,13.60
2022-10-17T16:10:24.786Z,12.50
2022-10-17T16:10:29.761Z,12.00
2022-10-17T16:28:21.073Z,13.90
2022-10-17T16:29:23.782Z,13.40
2022-10-17T16:31:22.273Z,13.70
2022-10-17T16:32:21.983Z,14.50
2022-10-17T16:33:21.991Z,12.00
2022-10-17T16:34:21.998Z,10.80
2022-10-17T16:35:21.974Z,11.60
2022-10-17T16:36:21.983Z,13.40
2022-10-17T16:37:21.904Z,11.60
2022-10-17T16:38:21.899Z,13.90
2022-10-17T16:39:23.814Z,13.20
2022-10-17T16:40:21.890Z,14.00
2022-10-17T16:41:21.956Z,12.80
2022-10-17T16:42:21.979Z,14.20
2022-10-17T16:43:21.883Z,14.00
2022-10-17T16:44:22.493Z,16.00
2022-10-17T16:45:21.843Z,15.50
2022-10-17T16:46:21.976Z,15.80
2022-10-17T16:47:22.663Z,15.10
2022-10-17T16:48:21.333Z,14.90
2022-10-17T16:49:22.028Z,12.90
2022-10-17T16:50:21.813Z,16.20
2022-10-17T16:51:21.861Z,14.60
2022-10-17T16:52:21.736Z,14.60
2022-10-17T16:53:28.511Z,14.90
2022-10-17T16:54:22.191Z,13.90
2022-10-17T16:55:27.543Z,16.60
2022-10-17T16:56:21.752Z,14.10
2022-10-17T16:57:21.693Z,14.10
2022-10-17T16:58:21.674Z,15.60
2022-10-17T16:59:22.332Z,15.30
2022-10-17T17:00:21.875Z,13.40
2022-10-17T17:45:10.088Z,15.10
2022-10-17T17:46:09.825Z,15.40
2022-10-17T17:47:08.089Z,13.60
2022-10-17T17:48:07.983Z,13.50
2022-10-17T17:49:08.242Z,15.90
2022-10-17T17:59:19.084Z,15.60
2022-10-17T18:00:20.150Z,16.20
2022-10-17T18:01:20.124Z,15.90
2022-10-17T18:34:21.027Z,10.20
2022-10-17T18:35:20.826Z,9.80
2022-10-17T18:36:21.039Z,11.90
2022-10-17T18:37:20.662Z,13.10
2022-10-17T18:42:26.729Z,10.50
2022-10-17T18:43:28.022Z,10.30
2022-10-17T18:44:27.807Z,12.40
2022-10-17T18:45:27.796Z,9.60
2022-10-17T18:46:28.080Z,9.60
2022-10-17T18:47:27.881Z,10.90
2022-10-17T18:48:27.674Z,10.60
2022-10-17T18:49:27.732Z,10.40
2022-10-17T18:50:27.664Z,10.90
2022-10-17T18:51:27.940Z,11.20
2022-10-17T18:52:27.899Z,10.50
2022-10-17T18:53:27.871Z,9.30
2022-10-17T18:54:27.659Z,9.60
2022-10-17T18:55:27.957Z,9.20
2022-10-17T18:56:27.607Z,9.70
2022-10-17T18:57:28.173Z,12.50
2022-10-17T18:58:27.598Z,14.20
2022-10-17T18:59:27.574Z,10.60
2022-10-17T19:00:27.654Z,10.10
2022-10-17T19:01:27.628Z,11.50
2022-10-17T19:02:27.504Z,11.70
2022-10-17T19:03:27.506Z,11.50
2022-10-17T19:04:27.486Z,9.50
2022-10-17T19:05:27.520Z,10.20
2022-10-17T19:06:27.518Z,10.20
2022-10-17T19:07:27.683Z,14.10
2022-10-17T19:08:27.460Z,9.20
2022-10-17T19:09:27.461Z,9.90
2022-10-17T19:10:27.444Z,9.50
2022-10-17T19:11:27.435Z,10.40
2022-10-17T19:12:27.440Z,10.50
2022-10-17T19:13:27.413Z,11.40
2022-10-17T19:14:27.391Z,9.90
2022-10-17T19:15:27.394Z,13.10
2022-10-17T19:16:27.385Z,10.40
2022-10-17T19:17:27.548Z,10.30
2022-10-17T19:18:27.368Z,10.90
2022-10-17T19:19:27.346Z,13.50
2022-10-17T19:20:27.340Z,11.10
2022-10-17T19:21:27.293Z,9.80
2022-10-17T19:22:27.319Z,10.00
2022-10-17T19:23:27.296Z,11.90
2022-10-17T19:24:27.267Z,12.00
2022-10-17T19:25:27.311Z,10.60
2022-10-17T19:26:27.255Z,9.10
2022-10-17T19:27:27.343Z,12.60
2022-10-17T19:28:27.286Z,11.60
2022-10-17T19:29:27.220Z,11.90
2022-10-17T19:30:27.271Z,12.20
2022-10-17T19:31:27.497Z,10.30
2022-10-17T19:32:27.237Z,11.50
2022-10-17T19:34:27.156Z,10.80
2022-10-17T19:35:27.170Z,12.60
2022-10-17T19:36:30.547Z,12.80
2022-10-17T19:37:27.276Z,13.60
2022-10-17T19:38:27.143Z,11.30
2022-10-17T19:39:27.233Z,11.50
2022-10-17T19:40:27.175Z,15.00
2022-10-17T19:41:27.124Z,12.10
2022-10-17T19:42:27.104Z,15.40
2022-10-17T19:43:27.041Z,16.20
2022-10-17T19:44:29.291Z,17.00
2022-10-17T19:45:27.121Z,15.50
2022-10-17T19:46:27.004Z,15.60
2022-10-17T19:47:27.010Z,14.10
2022-10-17T19:48:26.981Z,14.20
2022-10-17T19:49:27.014Z,15.90
2022-10-17T19:50:27.000Z,17.60
2022-10-17T19:51:26.973Z,15.30
2022-10-17T19:52:27.049Z,20.40
2022-10-17T19:53:26.940Z,17.20
2022-10-17T19:54:26.920Z,15.80
2022-10-17T19:55:26.962Z,23.70
2022-10-17T19:56:26.911Z,23.40
2022-10-17T19:57:26.947Z,22.50
2022-10-17T19:58:26.901Z,18.50
2022-10-17T19:59:26.877Z,23.20
2022-10-17T20:00:26.911Z,24.20
2022-10-17T20:01:26.916Z,19.00
2022-10-17T20:02:26.858Z,31.70
2022-10-17T20:03:26.839Z,27.10
2022-10-17T20:04:26.860Z,30.50
2022-10-17T20:05:28.271Z,24.50
2022-10-17T20:06:26.908Z,25.00
2022-10-17T20:07:26.795Z,33.10
2022-10-17T20:09:28.182Z,31.20
2022-10-17T20:21:05.848Z,37.00
2022-10-17T20:22:06.788Z,38.70
2022-10-17T20:23:07.085Z,37.50
2022-10-17T20:24:06.777Z,41.90
2022-10-17T20:25:07.707Z,34.10
2022-10-17T20:27:06.701Z,40.30
2022-10-17T20:28:06.661Z,42.50
2022-10-17T20:29:07.009Z,45.00
2022-10-17T20:30:06.945Z,40.60
2022-10-17T20:31:06.719Z,45.40
2022-10-17T20:32:06.658Z,46.00
2022-10-17T20:33:06.616Z,46.60
2022-10-17T20:34:06.833Z,45.00
2022-10-17T20:35:06.617Z,40.50
2022-10-17T20:36:06.575Z,52.00
2022-10-17T20:37:06.571Z,47.00
2022-10-17T20:38:06.830Z,52.70
2022-10-17T20:39:06.580Z,52.10
2022-10-17T20:40:32.883Z,51.80
2022-10-17T20:41:06.528Z,51.90
2022-10-17T20:42:06.493Z,49.60
2022-10-17T20:43:06.516Z,48.80
2022-10-17T20:44:06.485Z,52.00
2022-10-17T20:45:06.702Z,45.00
2022-10-17T20:46:22.737Z,43.40
2022-10-17T20:47:15.909Z,47.90
2022-10-17T20:48:06.448Z,50.60
2022-10-17T20:49:06.509Z,51.00
2022-10-17T20:50:06.590Z,49.50
2022-10-17T20:51:06.508Z,52.60
2022-10-17T20:52:06.426Z,49.70
2022-10-17T20:53:31.788Z,52.00
2022-10-17T20:54:06.416Z,39.30
2022-10-17T20:55:06.380Z,51.30
2022-10-17T20:56:06.420Z,54.80
2022-10-17T20:57:06.652Z,55.30
2022-10-17T20:58:06.921Z,58.00
2022-10-17T20:59:06.290Z,50.80
2022-10-17T21:00:06.632Z,51.90
2022-10-17T21:01:06.293Z,51.90
2022-10-17T21:02:06.360Z,47.20
2022-10-17T21:03:06.348Z,49.40
2022-10-17T21:04:33.360Z,55.40
2022-10-17T21:05:06.317Z,56.80
2022-10-17T21:06:06.304Z,59.20
2022-10-17T21:07:06.294Z,60.30
2022-10-17T21:08:06.233Z,59.10
2022-10-17T21:09:06.228Z,54.00
2022-10-17T21:10:30.699Z,58.20
2022-10-17T21:11:10.929Z,53.40
2022-10-17T21:15:30.061Z,41.80
2022-10-17T21:16:30.975Z,42.90
2022-10-17T21:17:30.967Z,46.50
2022-10-17T21:18:30.982Z,50.10
2022-10-17T21:19:30.986Z,46.90
2022-10-17T21:20:31.053Z,50.10
2022-10-17T21:21:31.143Z,51.80
2022-10-17T21:22:31.402Z,57.00
2022-10-17T21:23:31.734Z,48.20
2022-10-17T21:24:31.008Z,49.90
2022-10-17T21:25:30.930Z,36.80
2022-10-17T21:26:31.112Z,42.60
2022-10-17T21:27:30.887Z,40.80
2022-10-17T21:28:30.858Z,53.60
2022-10-17T21:29:30.863Z,47.60
2022-10-17T21:30:30.967Z,32.50
2022-10-17T21:31:31.680Z,31.80
2022-10-17T21:32:40.222Z,36.60
2022-10-17T21:33:30.798Z,35.70
2022-10-17T21:34:31.023Z,40.30
2022-10-17T21:35:30.818Z,37.80
2022-10-17T21:36:30.753Z,39.20
2022-10-17T21:37:30.786Z,59.30
2022-10-17T21:38:30.771Z,39.90
2022-10-17T21:39:30.767Z,56.30
2022-10-17T21:40:30.936Z,55.90
2022-10-17T21:41:30.731Z,38.70
2022-10-17T21:42:31.373Z,40.80
2022-10-17T21:43:30.707Z,42.60
2022-10-17T21:44:30.831Z,48.70
2022-10-17T21:45:30.698Z,36.00
2022-10-17T21:46:30.661Z,45.00
2022-10-17T21:47:30.638Z,36.50
2022-10-17T21:48:30.653Z,44.40
2022-10-17T21:49:30.614Z,31.00
2022-10-17T21:50:30.666Z,45.50
2022-10-17T21:51:30.592Z,39.50
2022-10-17T21:52:30.891Z,37.90
2022-10-17T21:53:30.688Z,43.40
2022-10-17T21:54:30.686Z,52.40
2022-10-17T21:55:30.827Z,40.20
2022-10-17T21:56:30.558Z,46.20
2022-10-17T21:57:30.579Z,26.80
2022-10-17T21:58:30.766Z,31.30
2022-10-17T21:59:30.519Z,35.50
2022-10-17T22:00:30.515Z,38.40
2022-10-17T22:01:30.612Z,25.90
2022-10-17T22:02:30.744Z,35.50
2022-10-17T22:03:30.462Z,33.10
2022-10-17T22:04:30.445Z,36.60
2022-10-17T22:05:30.450Z,47.30
2022-10-17T22:06:39.724Z,44.70
2022-10-17T22:07:30.429Z,27.80
2022-10-17T22:08:30.793Z,41.60
2022-10-17T22:09:30.660Z,35.60
2022-10-17T22:10:30.449Z,35.90
2022-10-17T22:11:30.388Z,36.10
2022-10-17T22:12:30.622Z,23.70
2022-10-17T22:13:30.335Z,33.60
2022-10-17T22:14:30.380Z,54.20
2022-10-17T22:15:30.389Z,56.50
2022-10-17T22:16:31.177Z,30.70
2022-10-17T22:17:30.664Z,53.60
2022-10-17T22:18:30.292Z,56.10
2022-10-17T22:19:30.309Z,44.90
2022-10-17T22:20:30.395Z,44.90
2022-10-17T22:21:30.288Z,66.10
2022-10-17T22:22:30.235Z,42.00
2022-10-17T22:23:30.255Z,44.50
2022-10-17T22:24:30.269Z,37.90
2022-10-17T22:25:30.302Z,52.40
2022-10-17T22:26:30.202Z,32.60
2022-10-17T22:27:30.491Z,51.80
2022-10-17T22:28:30.265Z,57.00
2022-10-17T22:29:30.244Z,38.50
2022-10-17T22:30:30.404Z,31.80
2022-10-17T22:31:30.165Z,46.70
2022-10-17T22:32:30.218Z,25.70
2022-10-17T22:33:30.209Z,68.40
2022-10-17T22:34:30.155Z,55.40
2022-10-17T22:35:30.143Z,53.00
2022-10-17T22:36:30.330Z,60.00
2022-10-17T22:37:30.422Z,58.90
2022-10-17T22:38:30.150Z,41.30
2022-10-17T22:39:30.149Z,44.80
2022-10-17T22:40:30.171Z,56.90
2022-10-17T22:41:30.660Z,39.50
2022-10-17T22:42:30.080Z,48.30
2022-10-17T22:43:30.023Z,55.90
2022-10-17T22:44:30.040Z,44.30
2022-10-17T22:45:30.034Z,41.40
2022-10-17T22:46:29.993Z,64.90
2022-10-17T22:47:30.475Z,68.90
2022-10-17T22:48:29.971Z,53.60
2022-10-17T22:49:29.963Z,54.50
2022-10-17T22:50:29.961Z,50.30
2022-10-17T22:51:29.940Z,39.10
2022-10-17T22:52:30.343Z,61.30
2022-10-17T22:53:30.161Z,53.40
2022-10-17T22:54:29.908Z,43.20
2022-10-17T22:55:30.017Z,45.90
2022-10-17T22:56:29.888Z,41.10
2022-10-17T22:57:30.090Z,71.30
2022-10-17T22:58:29.848Z,38.80
2022-10-17T22:59:30.537Z,39.10
2022-10-17T23:00:29.888Z,47.90
2022-10-17T23:01:30.135Z,53.50
2022-10-17T23:02:30.703Z,39.00
2022-10-17T23:03:31.533Z,35.30
2022-10-17T23:04:30.105Z,48.40
2022-10-17T23:05:29.804Z,44.00
2022-10-17T23:06:30.396Z,35.70
2022-10-17T23:07:29.759Z,59.90
2022-10-17T23:08:30.441Z,36.90
2022-10-17T23:09:30.043Z,76.50
2022-10-17T23:10:29.757Z,42.30
2022-10-17T23:11:29.975Z,78.10
2022-10-17T23:12:30.649Z,72.30
2022-10-17T23:13:29.979Z,65.40
2022-10-17T23:14:31.196Z,51.30
2022-10-17T23:15:31.124Z,44.30
2022-10-17T23:16:30.326Z,36.50
2022-10-17T23:17:30.341Z,60.70
2022-10-17T23:19:29.860Z,76.70
2022-10-17T23:20:29.636Z,67.80
2022-10-17T23:21:29.789Z,60.70
2022-10-17T23:22:30.162Z,56.00
2022-10-17T23:23:30.306Z,51.50
2022-10-17T23:24:29.801Z,70.60
2022-10-17T23:25:29.825Z,58.90
2022-10-17T23:26:33.114Z,55.00
2022-10-17T23:28:29.587Z,60.30
2022-10-17T23:29:29.682Z,78.10
2022-10-17T23:30:30.344Z,62.10
2022-10-17T23:31:30.966Z,59.70
2022-10-17T23:32:30.042Z,59.70
2022-10-17T23:33:30.181Z,70.30
2022-10-17T23:34:30.161Z,61.30
2022-10-17T23:35:30.080Z,63.40
2022-10-17T23:36:29.722Z,80.00
2022-10-17T23:37:30.285Z,63.10
2022-10-17T23:38:30.206Z,65.20
2022-10-17T23:39:29.658Z,67.10
2022-10-17T23:40:29.418Z,60.00
2022-10-17T23:41:29.999Z,71.30
2022-10-17T23:42:31.138Z,71.30
2022-10-17T23:43:29.604Z,80.80
2022-10-17T23:44:29.598Z,89.00
2022-10-17T23:45:34.647Z,72.90
2022-10-17T23:46:29.570Z,76.40
2022-10-17T23:47:30.131Z,70.40
2022-10-17T23:48:30.018Z,76.70
2022-10-17T23:49:41.985Z,85.60
2022-10-17T23:50:30.156Z,54.50
2022-10-17T23:51:29.918Z,67.00
2022-10-17T23:52:29.512Z,56.40
2022-10-17T23:53:29.447Z,81.90
2022-10-17T23:54:29.409Z,62.90
2022-10-17T23:55:29.226Z,75.00
2022-10-17T23:56:29.358Z,49.60
2022-10-17T23:57:30.234Z,60.40
2022-10-17T23:58:30.060Z,71.50
2022-10-17T23:59:29.383Z,51.40
